sensor_id;sensor_type;location;lat;lon;timestamp;P1;durP1;ratioP1;P2;durP2;ratioP2
58139;SDS011;53185;47.378;18.922;2023-11-22T00:01:10;38.17;;;17.55;;
58139;SDS011;53185;47.378;18.922;2023-11-22T00:09:09;36.63;;;17.98;;
58139;SDS011;53185;47.378;18.922;2023-11-22T00:11:39;39.07;;;17.73;;
58139;SDS011;53185;47.378;18.922;2023-11-22T00:14:07;41.05;;;18.05;;
58139;SDS011;53185;47.378;18.922;2023-11-22T00:16:35;44.30;;;18.40;;
58139;SDS011;53185;47.378;18.922;2023-11-22T00:19:06;44.50;;;19.42;;
58139;SDS011;53185;47.378;18.922;2023-11-22T00:21:34;39.00;;;18.62;;
58139;SDS011;53185;47.378;18.922;2023-11-22T00:24:03;50.10;;;18.05;;
58139;SDS011;53185;47.378;18.922;2023-11-22T00:26:33;35.53;;;18.05;;
58139;SDS011;53185;47.378;18.922;2023-11-22T00:31:33;39.50;;;15.68;;
58139;SDS011;53185;47.378;18.922;2023-11-22T00:34:01;41.13;;;16.80;;
58139;SDS011;53185;47.378;18.922;2023-11-22T00:36:30;37.45;;;16.98;;
58139;SDS011;53185;47.378;18.922;2023-11-22T00:38:58;38.28;;;17.37;;
58139;SDS011;53185;47.378;18.922;2023-11-22T00:41:33;39.13;;;16.08;;
58139;SDS011;53185;47.378;18.922;2023-11-22T00:44:03;38.45;;;16.83;;
58139;SDS011;53185;47.378;18.922;2023-11-22T00:46:33;39.22;;;18.15;;
58139;SDS011;53185;47.378;18.922;2023-11-22T00:49:02;34.85;;;15.02;;
58139;SDS011;53185;47.378;18.922;2023-11-22T00:51:31;33.10;;;15.98;;
58139;SDS011;53185;47.378;18.922;2023-11-22T00:54:00;35.50;;;15.45;;
58139;SDS011;53185;47.378;18.922;2023-11-22T00:56:30;30.67;;;15.23;;
58139;SDS011;53185;47.378;18.922;2023-11-22T00:59:00;31.05;;;14.85;;
58139;SDS011;53185;47.378;18.922;2023-11-22T01:04:00;30.80;;;14.00;;
58139;SDS011;53185;47.378;18.922;2023-11-22T01:06:28;32.42;;;14.98;;
58139;SDS011;53185;47.378;18.922;2023-11-22T01:08:59;29.00;;;13.77;;
58139;SDS011;53185;47.378;18.922;2023-11-22T01:11:27;31.67;;;14.00;;
58139;SDS011;53185;47.378;18.922;2023-11-22T01:16:30;29.70;;;13.93;;
58139;SDS011;53185;47.378;18.922;2023-11-22T01:19:01;33.10;;;13.95;;
58139;SDS011;53185;47.378;18.922;2023-11-22T01:21:31;30.85;;;13.27;;
58139;SDS011;53185;47.378;18.922;2023-11-22T01:24:00;43.50;;;14.25;;
58139;SDS011;53185;47.378;18.922;2023-11-22T01:26:29;34.55;;;15.40;;
58139;SDS011;53185;47.378;18.922;2023-11-22T01:28:59;37.13;;;16.05;;
58139;SDS011;53185;47.378;18.922;2023-11-22T01:31:27;46.47;;;16.87;;
58139;SDS011;53185;47.378;18.922;2023-11-22T01:42:46;59.92;;;16.00;;
58139;SDS011;53185;47.378;18.922;2023-11-22T01:45:14;44.15;;;15.73;;
58139;SDS011;53185;47.378;18.922;2023-11-22T01:47:46;65.37;;;17.80;;
58139;SDS011;53185;47.378;18.922;2023-11-22T01:50:14;70.35;;;16.95;;
58139;SDS011;53185;47.378;18.922;2023-11-22T01:52:42;92.72;;;16.12;;
58139;SDS011;53185;47.378;18.922;2023-11-22T01:55:10;36.97;;;15.23;;
58139;SDS011;53185;47.378;18.922;2023-11-22T02:00:26;88.50;;;16.83;;
58139;SDS011;53185;47.378;18.922;2023-11-22T02:02:56;43.20;;;15.80;;
58139;SDS011;53185;47.378;18.922;2023-11-22T02:05:25;58.38;;;15.20;;
58139;SDS011;53185;47.378;18.922;2023-11-22T02:07:53;54.95;;;15.30;;
58139;SDS011;53185;47.378;18.922;2023-11-22T02:10:22;60.12;;;15.40;;
58139;SDS011;53185;47.378;18.922;2023-11-22T02:12:51;69.18;;;15.18;;
58139;SDS011;53185;47.378;18.922;2023-11-22T02:15:19;57.80;;;15.13;;
58139;SDS011;53185;47.378;18.922;2023-11-22T02:17:47;55.03;;;15.30;;
58139;SDS011;53185;47.378;18.922;2023-11-22T02:20:26;37.95;;;15.35;;
58139;SDS011;53185;47.378;18.922;2023-11-22T02:25:56;31.27;;;15.50;;
58139;SDS011;53185;47.378;18.922;2023-11-22T02:28:29;36.47;;;14.40;;
58139;SDS011;53185;47.378;18.922;2023-11-22T02:30:57;38.17;;;14.77;;
58139;SDS011;53185;47.378;18.922;2023-11-22T02:33:26;44.20;;;15.27;;
58139;SDS011;53185;47.378;18.922;2023-11-22T02:35:54;26.70;;;14.15;;
58139;SDS011;53185;47.378;18.922;2023-11-22T02:38:23;38.72;;;15.10;;
58139;SDS011;53185;47.378;18.922;2023-11-22T02:40:52;30.20;;;12.88;;
58139;SDS011;53185;47.378;18.922;2023-11-22T02:43:21;39.22;;;13.95;;
58139;SDS011;53185;47.378;18.922;2023-11-22T02:45:52;36.33;;;13.88;;
58139;SDS011;53185;47.378;18.922;2023-11-22T02:48:21;34.08;;;13.62;;
58139;SDS011;53185;47.378;18.922;2023-11-22T02:50:50;35.47;;;14.95;;
58139;SDS011;53185;47.378;18.922;2023-11-22T02:53:18;31.98;;;13.88;;
58139;SDS011;53185;47.378;18.922;2023-11-22T02:55:47;31.05;;;14.55;;
58139;SDS011;53185;47.378;18.922;2023-11-22T02:58:15;31.10;;;14.50;;
58139;SDS011;53185;47.378;18.922;2023-11-22T03:00:48;31.55;;;14.02;;
58139;SDS011;53185;47.378;18.922;2023-11-22T03:03:17;33.03;;;15.07;;
58139;SDS011;53185;47.378;18.922;2023-11-22T03:05:45;31.17;;;15.02;;
58139;SDS011;53185;47.378;18.922;2023-11-22T03:08:14;45.50;;;14.55;;
58139;SDS011;53185;47.378;18.922;2023-11-22T03:10:43;35.20;;;12.73;;
58139;SDS011;53185;47.378;18.922;2023-11-22T03:13:12;32.17;;;13.88;;
58139;SDS011;53185;47.378;18.922;2023-11-22T03:15:45;33.50;;;14.52;;
58139;SDS011;53185;47.378;18.922;2023-11-22T03:18:19;35.20;;;13.75;;
58139;SDS011;53185;47.378;18.922;2023-11-22T03:20:51;43.92;;;13.43;;
58139;SDS011;53185;47.378;18.922;2023-11-22T03:23:22;46.55;;;15.07;;
58139;SDS011;53185;47.378;18.922;2023-11-22T03:25:51;43.80;;;15.20;;
58139;SDS011;53185;47.378;18.922;2023-11-22T03:30:51;33.83;;;12.52;;
58139;SDS011;53185;47.378;18.922;2023-11-22T03:33:19;30.65;;;13.93;;
58139;SDS011;53185;47.378;18.922;2023-11-22T03:35:56;34.90;;;14.73;;
58139;SDS011;53185;47.378;18.922;2023-11-22T03:38:27;26.80;;;13.45;;
58139;SDS011;53185;47.378;18.922;2023-11-22T03:40:55;31.42;;;14.25;;
58139;SDS011;53185;47.378;18.922;2023-11-22T03:43:24;28.55;;;14.77;;
58139;SDS011;53185;47.378;18.922;2023-11-22T03:45:53;38.17;;;15.02;;
58139;SDS011;53185;47.378;18.922;2023-11-22T03:48:21;29.60;;;15.30;;
58139;SDS011;53185;47.378;18.922;2023-11-22T03:50:51;32.55;;;16.20;;
58139;SDS011;53185;47.378;18.922;2023-11-22T03:53:19;34.97;;;15.82;;
58139;SDS011;53185;47.378;18.922;2023-11-22T03:55:49;35.72;;;15.35;;
58139;SDS011;53185;47.378;18.922;2023-11-22T03:58:19;35.92;;;15.15;;
58139;SDS011;53185;47.378;18.922;2023-11-22T04:00:47;35.88;;;15.13;;
58139;SDS011;53185;47.378;18.922;2023-11-22T04:03:15;30.08;;;15.55;;
58139;SDS011;53185;47.378;18.922;2023-11-22T04:05:44;29.63;;;15.73;;
58139;SDS011;53185;47.378;18.922;2023-11-22T04:08:12;27.90;;;15.57;;
58139;SDS011;53185;47.378;18.922;2023-11-22T04:10:40;35.63;;;14.18;;
58139;SDS011;53185;47.378;18.922;2023-11-22T04:13:08;37.90;;;15.82;;
58139;SDS011;53185;47.378;18.922;2023-11-22T04:15:36;37.03;;;15.73;;
58139;SDS011;53185;47.378;18.922;2023-11-22T04:18:04;32.20;;;15.13;;
58139;SDS011;53185;47.378;18.922;2023-11-22T04:20:34;27.57;;;14.20;;
58139;SDS011;53185;47.378;18.922;2023-11-22T04:23:04;29.30;;;14.48;;
58139;SDS011;53185;47.378;18.922;2023-11-22T04:25:33;27.58;;;14.15;;
58139;SDS011;53185;47.378;18.922;2023-11-22T04:28:02;34.42;;;15.30;;
58139;SDS011;53185;47.378;18.922;2023-11-22T04:30:30;26.87;;;14.20;;
58139;SDS011;53185;47.378;18.922;2023-11-22T04:32:58;30.80;;;14.32;;
58139;SDS011;53185;47.378;18.922;2023-11-22T04:35:27;39.35;;;14.77;;
58139;SDS011;53185;47.378;18.922;2023-11-22T04:37:55;28.05;;;13.35;;
58139;SDS011;53185;47.378;18.922;2023-11-22T04:40:23;26.05;;;14.25;;
58139;SDS011;53185;47.378;18.922;2023-11-22T04:42:51;27.80;;;14.65;;
58139;SDS011;53185;47.378;18.922;2023-11-22T04:45:21;27.67;;;14.63;;
58139;SDS011;53185;47.378;18.922;2023-11-22T04:47:49;32.40;;;14.80;;
58139;SDS011;53185;47.378;18.922;2023-11-22T04:50:18;26.30;;;14.27;;
58139;SDS011;53185;47.378;18.922;2023-11-22T04:52:46;29.50;;;13.32;;
58139;SDS011;53185;47.378;18.922;2023-11-22T04:55:14;24.67;;;12.43;;
58139;SDS011;53185;47.378;18.922;2023-11-22T04:57:41;23.75;;;13.32;;
58139;SDS011;53185;47.378;18.922;2023-11-22T05:00:09;26.17;;;14.18;;
58139;SDS011;53185;47.378;18.922;2023-11-22T05:02:40;25.73;;;13.15;;
58139;SDS011;53185;47.378;18.922;2023-11-22T05:05:15;23.40;;;12.05;;
58139;SDS011;53185;47.378;18.922;2023-11-22T05:07:44;26.80;;;13.25;;
58139;SDS011;53185;47.378;18.922;2023-11-22T05:10:15;26.08;;;13.48;;
58139;SDS011;53185;47.378;18.922;2023-11-22T05:12:44;23.75;;;12.93;;
58139;SDS011;53185;47.378;18.922;2023-11-22T05:15:12;24.15;;;13.20;;
58139;SDS011;53185;47.378;18.922;2023-11-22T05:17:41;26.20;;;13.25;;
58139;SDS011;53185;47.378;18.922;2023-11-22T05:20:15;39.53;;;22.10;;
58139;SDS011;53185;47.378;18.922;2023-11-22T05:22:50;24.48;;;13.32;;
58139;SDS011;53185;47.378;18.922;2023-11-22T05:25:18;24.75;;;11.82;;
58139;SDS011;53185;47.378;18.922;2023-11-22T05:27:45;19.75;;;10.43;;
58139;SDS011;53185;47.378;18.922;2023-11-22T05:30:13;27.33;;;12.37;;
58139;SDS011;53185;47.378;18.922;2023-11-22T05:32:44;25.05;;;13.52;;
58139;SDS011;53185;47.378;18.922;2023-11-22T05:35:12;27.37;;;16.58;;
58139;SDS011;53185;47.378;18.922;2023-11-22T05:37:42;35.88;;;18.92;;
58139;SDS011;53185;47.378;18.922;2023-11-22T05:40:10;46.80;;;24.73;;
58139;SDS011;53185;47.378;18.922;2023-11-22T05:42:38;56.65;;;29.70;;
58139;SDS011;53185;47.378;18.922;2023-11-22T05:45:10;55.50;;;27.23;;
58139;SDS011;53185;47.378;18.922;2023-11-22T05:47:39;45.80;;;22.52;;
58139;SDS011;53185;47.378;18.922;2023-11-22T05:50:19;35.95;;;18.17;;
58139;SDS011;53185;47.378;18.922;2023-11-22T05:52:50;26.95;;;14.82;;
58139;SDS011;53185;47.378;18.922;2023-11-22T05:55:20;24.40;;;13.35;;
58139;SDS011;53185;47.378;18.922;2023-11-22T05:57:54;30.12;;;13.95;;
58139;SDS011;53185;47.378;18.922;2023-11-22T06:00:45;28.55;;;12.48;;
58139;SDS011;53185;47.378;18.922;2023-11-22T06:03:13;23.67;;;13.70;;
58139;SDS011;53185;47.378;18.922;2023-11-22T06:05:42;26.12;;;13.73;;
58139;SDS011;53185;47.378;18.922;2023-11-22T06:08:12;31.23;;;13.73;;
58139;SDS011;53185;47.378;18.922;2023-11-22T06:10:41;28.10;;;14.13;;
58139;SDS011;53185;47.378;18.922;2023-11-22T06:13:10;39.97;;;18.15;;
58139;SDS011;53185;47.378;18.922;2023-11-22T06:15:40;42.53;;;19.17;;
58139;SDS011;53185;47.378;18.922;2023-11-22T06:18:09;43.20;;;23.02;;
58139;SDS011;53185;47.378;18.922;2023-11-22T06:20:39;46.88;;;26.10;;
58139;SDS011;53185;47.378;18.922;2023-11-22T06:23:09;41.00;;;22.05;;
58139;SDS011;53185;47.378;18.922;2023-11-22T06:25:37;38.13;;;19.40;;
58139;SDS011;53185;47.378;18.922;2023-11-22T06:28:07;34.10;;;18.37;;
58139;SDS011;53185;47.378;18.922;2023-11-22T06:30:37;41.67;;;17.58;;
58139;SDS011;53185;47.378;18.922;2023-11-22T06:33:04;35.20;;;18.45;;
58139;SDS011;53185;47.378;18.922;2023-11-22T06:35:32;34.97;;;15.52;;
58139;SDS011;53185;47.378;18.922;2023-11-22T06:38:00;31.50;;;16.48;;
58139;SDS011;53185;47.378;18.922;2023-11-22T06:40:30;34.00;;;16.10;;
58139;SDS011;53185;47.378;18.922;2023-11-22T06:45:42;30.80;;;17.15;;
58139;SDS011;53185;47.378;18.922;2023-11-22T06:48:11;37.15;;;18.12;;
58139;SDS011;53185;47.378;18.922;2023-11-22T06:50:39;39.20;;;16.73;;
58139;SDS011;53185;47.378;18.922;2023-11-22T06:53:08;31.77;;;17.10;;
58139;SDS011;53185;47.378;18.922;2023-11-22T06:55:38;44.30;;;20.08;;
58139;SDS011;53185;47.378;18.922;2023-11-22T06:58:07;45.92;;;22.42;;
58139;SDS011;53185;47.378;18.922;2023-11-22T07:00:36;37.28;;;20.77;;
58139;SDS011;53185;47.378;18.922;2023-11-22T07:03:07;36.20;;;19.08;;
58139;SDS011;53185;47.378;18.922;2023-11-22T07:05:41;33.78;;;17.40;;
58139;SDS011;53185;47.378;18.922;2023-11-22T07:08:13;34.40;;;18.25;;
58139;SDS011;53185;47.378;18.922;2023-11-22T07:10:49;38.85;;;17.60;;
58139;SDS011;53185;47.378;18.922;2023-11-22T07:13:20;33.70;;;16.37;;
58139;SDS011;53185;47.378;18.922;2023-11-22T07:15:50;46.40;;;19.12;;
58139;SDS011;53185;47.378;18.922;2023-11-22T07:18:19;36.13;;;18.80;;
58139;SDS011;53185;47.378;18.922;2023-11-22T07:20:48;38.28;;;18.08;;
58139;SDS011;53185;47.378;18.922;2023-11-22T07:23:20;41.75;;;18.40;;
58139;SDS011;53185;47.378;18.922;2023-11-22T07:25:55;41.45;;;18.12;;
58139;SDS011;53185;47.378;18.922;2023-11-22T07:30:58;50.22;;;18.52;;
58139;SDS011;53185;47.378;18.922;2023-11-22T07:33:30;45.25;;;18.92;;
58139;SDS011;53185;47.378;18.922;2023-11-22T07:35:59;38.45;;;18.55;;
58139;SDS011;53185;47.378;18.922;2023-11-22T07:44:33;27.42;;;12.20;;
58139;SDS011;53185;47.378;18.922;2023-11-22T07:47:31;16.57;;;10.77;;
58139;SDS011;53185;47.378;18.922;2023-11-22T07:50:05;20.80;;;10.40;;
58139;SDS011;53185;47.378;18.922;2023-11-22T07:52:37;19.58;;;11.65;;
58139;SDS011;53185;47.378;18.922;2023-11-22T07:55:10;21.80;;;12.27;;
58139;SDS011;53185;47.378;18.922;2023-11-22T07:57:41;23.65;;;11.70;;
58139;SDS011;53185;47.378;18.922;2023-11-22T08:00:19;29.00;;;13.95;;
58139;SDS011;53185;47.378;18.922;2023-11-22T08:02:57;25.88;;;12.05;;
58139;SDS011;53185;47.378;18.922;2023-11-22T08:05:29;27.33;;;11.98;;
58139;SDS011;53185;47.378;18.922;2023-11-22T08:08:05;27.08;;;11.60;;
58139;SDS011;53185;47.378;18.922;2023-11-22T08:11:24;23.87;;;10.90;;
58139;SDS011;53185;47.378;18.922;2023-11-22T08:20:01;17.00;;;9.05;;
58139;SDS011;53185;47.378;18.922;2023-11-22T08:22:39;21.20;;;9.52;;
58139;SDS011;53185;47.378;18.922;2023-11-22T08:28:10;17.33;;;8.80;;
58139;SDS011;53185;47.378;18.922;2023-11-22T08:30:40;33.42;;;12.93;;
58139;SDS011;53185;47.378;18.922;2023-11-22T08:33:08;41.55;;;14.30;;
58139;SDS011;53185;47.378;18.922;2023-11-22T08:35:37;35.15;;;13.23;;
58139;SDS011;53185;47.378;18.922;2023-11-22T08:38:06;26.70;;;12.00;;
58139;SDS011;53185;47.378;18.922;2023-11-22T08:40:36;20.42;;;9.88;;
58139;SDS011;53185;47.378;18.922;2023-11-22T08:43:04;19.95;;;9.18;;
58139;SDS011;53185;47.378;18.922;2023-11-22T08:45:32;17.48;;;8.27;;
58139;SDS011;53185;47.378;18.922;2023-11-22T08:48:03;37.78;;;15.50;;
58139;SDS011;53185;47.378;18.922;2023-11-22T08:50:34;30.08;;;10.38;;
58139;SDS011;53185;47.378;18.922;2023-11-22T08:53:11;32.53;;;10.30;;
58139;SDS011;53185;47.378;18.922;2023-11-22T08:55:39;23.83;;;13.00;;
58139;SDS011;53185;47.378;18.922;2023-11-22T08:58:06;22.60;;;11.98;;
58139;SDS011;53185;47.378;18.922;2023-11-22T09:00:36;27.27;;;12.25;;
58139;SDS011;53185;47.378;18.922;2023-11-22T09:03:06;23.85;;;10.43;;
58139;SDS011;53185;47.378;18.922;2023-11-22T09:05:36;22.23;;;9.50;;
58139;SDS011;53185;47.378;18.922;2023-11-22T09:08:08;18.55;;;9.55;;
58139;SDS011;53185;47.378;18.922;2023-11-22T09:10:52;17.80;;;9.25;;
58139;SDS011;53185;47.378;18.922;2023-11-22T09:13:27;32.70;;;15.13;;
58139;SDS011;53185;47.378;18.922;2023-11-22T09:15:57;18.77;;;8.13;;
58139;SDS011;53185;47.378;18.922;2023-11-22T09:18:24;20.73;;;8.65;;
58139;SDS011;53185;47.378;18.922;2023-11-22T09:20:56;15.18;;;8.38;;
58139;SDS011;53185;47.378;18.922;2023-11-22T09:23:23;13.93;;;7.40;;
58139;SDS011;53185;47.378;18.922;2023-11-22T09:25:55;14.15;;;8.25;;
58139;SDS011;53185;47.378;18.922;2023-11-22T09:28:22;16.23;;;8.02;;
58139;SDS011;53185;47.378;18.922;2023-11-22T09:30:50;14.18;;;8.38;;
58139;SDS011;53185;47.378;18.922;2023-11-22T09:33:18;20.48;;;8.88;;
58139;SDS011;53185;47.378;18.922;2023-11-22T09:39:19;15.85;;;8.85;;
58139;SDS011;53185;47.378;18.922;2023-11-22T09:41:50;14.77;;;7.25;;
58139;SDS011;53185;47.378;18.922;2023-11-22T09:44:19;16.27;;;7.18;;
58139;SDS011;53185;47.378;18.922;2023-11-22T09:46:47;13.00;;;7.57;;
58139;SDS011;53185;47.378;18.922;2023-11-22T09:49:25;31.95;;;13.00;;
58139;SDS011;53185;47.378;18.922;2023-11-22T09:51:55;13.85;;;8.52;;
58139;SDS011;53185;47.378;18.922;2023-11-22T09:54:25;14.68;;;9.63;;
58139;SDS011;53185;47.378;18.922;2023-11-22T09:56:57;16.35;;;8.10;;
58139;SDS011;53185;47.378;18.922;2023-11-22T09:59:29;16.45;;;8.35;;
58139;SDS011;53185;47.378;18.922;2023-11-22T10:02:00;15.30;;;9.00;;
58139;SDS011;53185;47.378;18.922;2023-11-22T10:07:56;14.05;;;7.93;;
58139;SDS011;53185;47.378;18.922;2023-11-22T10:13:50;13.93;;;7.22;;
58139;SDS011;53185;47.378;18.922;2023-11-22T10:16:19;16.08;;;8.18;;
58139;SDS011;53185;47.378;18.922;2023-11-22T10:24:48;24.33;;;11.73;;
58139;SDS011;53185;47.378;18.922;2023-11-22T10:30:47;14.57;;;8.32;;
58139;SDS011;53185;47.378;18.922;2023-11-22T10:36:19;16.23;;;8.13;;
58139;SDS011;53185;47.378;18.922;2023-11-22T10:38:49;16.37;;;7.57;;
58139;SDS011;53185;47.378;18.922;2023-11-22T10:41:24;14.43;;;8.68;;
58139;SDS011;53185;47.378;18.922;2023-11-22T10:43:54;15.80;;;7.80;;
58139;SDS011;53185;47.378;18.922;2023-11-22T10:46:29;16.40;;;8.68;;
58139;SDS011;53185;47.378;18.922;2023-11-22T10:52:31;17.33;;;8.43;;
58139;SDS011;53185;47.378;18.922;2023-11-22T10:55:01;17.17;;;8.27;;
58139;SDS011;53185;47.378;18.922;2023-11-22T10:57:38;16.67;;;9.75;;
58139;SDS011;53185;47.378;18.922;2023-11-22T11:00:08;17.92;;;10.85;;
58139;SDS011;53185;47.378;18.922;2023-11-22T11:02:46;19.65;;;9.07;;
58139;SDS011;53185;47.378;18.922;2023-11-22T11:05:22;18.83;;;9.57;;
58139;SDS011;53185;47.378;18.922;2023-11-22T11:08:00;17.62;;;9.55;;
58139;SDS011;53185;47.378;18.922;2023-11-22T11:10:42;24.33;;;13.02;;
58139;SDS011;53185;47.378;18.922;2023-11-22T11:13:10;29.80;;;11.88;;
58139;SDS011;53185;47.378;18.922;2023-11-22T11:15:40;25.37;;;13.38;;
58139;SDS011;53185;47.378;18.922;2023-11-22T11:18:13;31.73;;;12.13;;
58139;SDS011;53185;47.378;18.922;2023-11-22T11:20:49;17.75;;;9.25;;
58139;SDS011;53185;47.378;18.922;2023-11-22T11:23:21;19.15;;;9.52;;
58139;SDS011;53185;47.378;18.922;2023-11-22T11:25:57;24.35;;;10.10;;
58139;SDS011;53185;47.378;18.922;2023-11-22T11:28:43;19.15;;;10.55;;
58139;SDS011;53185;47.378;18.922;2023-11-22T11:31:20;26.17;;;11.80;;
58139;SDS011;53185;47.378;18.922;2023-11-22T11:33:54;18.80;;;10.10;;
58139;SDS011;53185;47.378;18.922;2023-11-22T11:36:29;20.23;;;11.18;;
58139;SDS011;53185;47.378;18.922;2023-11-22T11:39:00;22.02;;;10.35;;
58139;SDS011;53185;47.378;18.922;2023-11-22T11:45:04;22.87;;;10.88;;
58139;SDS011;53185;47.378;18.922;2023-11-22T11:47:41;20.58;;;9.75;;
58139;SDS011;53185;47.378;18.922;2023-11-22T11:50:10;21.98;;;10.13;;
58139;SDS011;53185;47.378;18.922;2023-11-22T11:52:39;19.75;;;9.77;;
58139;SDS011;53185;47.378;18.922;2023-11-22T11:55:07;21.12;;;10.10;;
58139;SDS011;53185;47.378;18.922;2023-11-22T11:57:52;18.98;;;10.43;;
58139;SDS011;53185;47.378;18.922;2023-11-22T12:00:21;29.42;;;11.02;;
58139;SDS011;53185;47.378;18.922;2023-11-22T12:02:56;22.50;;;10.60;;
58139;SDS011;53185;47.378;18.922;2023-11-22T12:05:24;23.62;;;9.98;;
58139;SDS011;53185;47.378;18.922;2023-11-22T12:07:55;18.98;;;9.45;;
58139;SDS011;53185;47.378;18.922;2023-11-22T12:10:24;23.42;;;10.82;;
58139;SDS011;53185;47.378;18.922;2023-11-22T12:12:53;22.15;;;11.38;;
58139;SDS011;53185;47.378;18.922;2023-11-22T12:15:25;17.48;;;9.50;;
58139;SDS011;53185;47.378;18.922;2023-11-22T12:17:53;18.12;;;9.73;;
58139;SDS011;53185;47.378;18.922;2023-11-22T12:20:26;18.45;;;9.70;;
58139;SDS011;53185;47.378;18.922;2023-11-22T12:23:00;17.10;;;9.48;;
58139;SDS011;53185;47.378;18.922;2023-11-22T12:25:31;20.45;;;11.25;;
58139;SDS011;53185;47.378;18.922;2023-11-22T12:27:59;22.62;;;11.15;;
58139;SDS011;53185;47.378;18.922;2023-11-22T12:30:37;20.23;;;11.43;;
58139;SDS011;53185;47.378;18.922;2023-11-22T12:33:09;21.60;;;11.40;;
58139;SDS011;53185;47.378;18.922;2023-11-22T12:38:09;25.12;;;10.82;;
58139;SDS011;53185;47.378;18.922;2023-11-22T12:44:07;21.45;;;11.93;;
58139;SDS011;53185;47.378;18.922;2023-11-22T12:53:00;24.23;;;12.52;;
58139;SDS011;53185;47.378;18.922;2023-11-22T12:55:42;22.60;;;12.40;;
58139;SDS011;53185;47.378;18.922;2023-11-22T12:58:23;27.05;;;13.20;;
58139;SDS011;53185;47.378;18.922;2023-11-22T13:00:56;22.08;;;12.77;;
58139;SDS011;53185;47.378;18.922;2023-11-22T13:03:28;26.10;;;12.23;;
58139;SDS011;53185;47.378;18.922;2023-11-22T13:05:56;20.42;;;11.57;;
58139;SDS011;53185;47.378;18.922;2023-11-22T13:10:58;25.62;;;12.60;;
58139;SDS011;53185;47.378;18.922;2023-11-22T13:13:30;20.23;;;12.00;;
58139;SDS011;53185;47.378;18.922;2023-11-22T13:15:58;19.55;;;10.60;;
58139;SDS011;53185;47.378;18.922;2023-11-22T13:18:28;20.37;;;11.20;;
58139;SDS011;53185;47.378;18.922;2023-11-22T13:20:55;20.15;;;11.90;;
58139;SDS011;53185;47.378;18.922;2023-11-22T13:23:24;23.12;;;11.93;;
58139;SDS011;53185;47.378;18.922;2023-11-22T13:25:53;23.20;;;11.02;;
58139;SDS011;53185;47.378;18.922;2023-11-22T13:28:23;23.02;;;11.50;;
58139;SDS011;53185;47.378;18.922;2023-11-22T13:30:52;23.90;;;11.90;;
58139;SDS011;53185;47.378;18.922;2023-11-22T13:33:24;24.17;;;11.55;;
58139;SDS011;53185;47.378;18.922;2023-11-22T13:35:56;20.52;;;11.12;;
58139;SDS011;53185;47.378;18.922;2023-11-22T13:38:25;21.52;;;11.35;;
58139;SDS011;53185;47.378;18.922;2023-11-22T13:40:52;22.25;;;12.55;;
58139;SDS011;53185;47.378;18.922;2023-11-22T13:43:20;24.05;;;11.75;;
58139;SDS011;53185;47.378;18.922;2023-11-22T13:45:47;27.60;;;12.75;;
58139;SDS011;53185;47.378;18.922;2023-11-22T13:48:16;17.50;;;10.20;;
58139;SDS011;53185;47.378;18.922;2023-11-22T13:50:44;20.60;;;10.82;;
58139;SDS011;53185;47.378;18.922;2023-11-22T13:53:13;19.05;;;10.80;;
58139;SDS011;53185;47.378;18.922;2023-11-22T13:55:43;20.90;;;11.85;;
58139;SDS011;53185;47.378;18.922;2023-11-22T13:58:10;16.35;;;10.00;;
58139;SDS011;53185;47.378;18.922;2023-11-22T14:00:38;20.60;;;9.25;;
58139;SDS011;53185;47.378;18.922;2023-11-22T14:03:11;15.35;;;8.98;;
58139;SDS011;53185;47.378;18.922;2023-11-22T14:05:40;17.90;;;9.30;;
58139;SDS011;53185;47.378;18.922;2023-11-22T14:08:08;15.88;;;9.00;;
58139;SDS011;53185;47.378;18.922;2023-11-22T14:10:36;16.02;;;9.25;;
58139;SDS011;53185;47.378;18.922;2023-11-22T14:13:05;16.92;;;9.18;;
58139;SDS011;53185;47.378;18.922;2023-11-22T14:15:34;17.98;;;8.73;;
58139;SDS011;53185;47.378;18.922;2023-11-22T14:18:02;15.88;;;9.25;;
58139;SDS011;53185;47.378;18.922;2023-11-22T14:20:30;14.68;;;8.55;;
58139;SDS011;53185;47.378;18.922;2023-11-22T14:23:00;15.55;;;8.23;;
58139;SDS011;53185;47.378;18.922;2023-11-22T14:25:28;13.48;;;8.32;;
58139;SDS011;53185;47.378;18.922;2023-11-22T14:27:57;21.70;;;11.48;;
58139;SDS011;53185;47.378;18.922;2023-11-22T14:30:27;12.68;;;7.72;;
58139;SDS011;53185;47.378;18.922;2023-11-22T14:32:57;23.83;;;11.57;;
58139;SDS011;53185;47.378;18.922;2023-11-22T14:35:27;22.67;;;11.75;;
58139;SDS011;53185;47.378;18.922;2023-11-22T14:37:54;17.25;;;9.27;;
58139;SDS011;53185;47.378;18.922;2023-11-22T14:40:28;21.37;;;8.00;;
58139;SDS011;53185;47.378;18.922;2023-11-22T14:42:58;16.02;;;8.27;;
58139;SDS011;53185;47.378;18.922;2023-11-22T14:45:26;13.57;;;7.70;;
58139;SDS011;53185;47.378;18.922;2023-11-22T14:47:55;20.42;;;8.07;;
58139;SDS011;53185;47.378;18.922;2023-11-22T14:50:25;13.48;;;6.78;;
58139;SDS011;53185;47.378;18.922;2023-11-22T14:52:57;14.65;;;8.18;;
58139;SDS011;53185;47.378;18.922;2023-11-22T14:55:27;14.68;;;7.62;;
58139;SDS011;53185;47.378;18.922;2023-11-22T14:57:57;14.98;;;7.20;;
58139;SDS011;53185;47.378;18.922;2023-11-22T15:00:27;13.18;;;7.80;;
58139;SDS011;53185;47.378;18.922;2023-11-22T15:03:07;22.00;;;9.00;;
58139;SDS011;53185;47.378;18.922;2023-11-22T15:05:36;23.12;;;9.32;;
58139;SDS011;53185;47.378;18.922;2023-11-22T15:08:04;19.45;;;9.02;;
58139;SDS011;53185;47.378;18.922;2023-11-22T15:10:31;19.05;;;9.07;;
58139;SDS011;53185;47.378;18.922;2023-11-22T15:13:00;21.30;;;9.85;;
58139;SDS011;53185;47.378;18.922;2023-11-22T15:15:29;20.80;;;10.40;;
58139;SDS011;53185;47.378;18.922;2023-11-22T15:17:58;22.13;;;9.60;;
58139;SDS011;53185;47.378;18.922;2023-11-22T15:20:26;19.83;;;11.20;;
58139;SDS011;53185;47.378;18.922;2023-11-22T15:25:25;14.00;;;6.87;;
58139;SDS011;53185;47.378;18.922;2023-11-22T15:27:53;12.65;;;6.62;;
58139;SDS011;53185;47.378;18.922;2023-11-22T15:30:21;18.50;;;8.63;;
58139;SDS011;53185;47.378;18.922;2023-11-22T15:32:50;13.82;;;7.05;;
58139;SDS011;53185;47.378;18.922;2023-11-22T15:38:56;16.42;;;8.68;;
58139;SDS011;53185;47.378;18.922;2023-11-22T15:41:29;20.02;;;9.10;;
58139;SDS011;53185;47.378;18.922;2023-11-22T15:43:57;13.62;;;6.80;;
58139;SDS011;53185;47.378;18.922;2023-11-22T15:46:25;17.17;;;8.40;;
58139;SDS011;53185;47.378;18.922;2023-11-22T15:48:53;30.73;;;12.63;;
58139;SDS011;53185;47.378;18.922;2023-11-22T15:51:24;32.75;;;12.37;;
58139;SDS011;53185;47.378;18.922;2023-11-22T15:53:52;27.37;;;10.57;;
58139;SDS011;53185;47.378;18.922;2023-11-22T15:56:20;23.38;;;9.80;;
58139;SDS011;53185;47.378;18.922;2023-11-22T15:58:47;19.80;;;9.02;;
58139;SDS011;53185;47.378;18.922;2023-11-22T16:01:25;24.95;;;9.70;;
58139;SDS011;53185;47.378;18.922;2023-11-22T16:03:58;19.35;;;9.05;;
58139;SDS011;53185;47.378;18.922;2023-11-22T16:06:26;19.77;;;9.68;;
58139;SDS011;53185;47.378;18.922;2023-11-22T16:08:58;20.23;;;10.73;;
58139;SDS011;53185;47.378;18.922;2023-11-22T16:11:32;18.20;;;10.43;;